Time;durP1;ratioP1;P1;durP2;ratioP2;P2;SDS_P1;SDS_P2;PMS_P1;PMS_P2;Temp;Humidity;BMP_temperature;BMP_pressure;BME280_temperature;BME280_humidity;BME280_pressure;Samples;Min_cycle;Max_cycle;Signal;HPM_P1;HPM_P2
2022/07/07 00:01:41;;;;;;;2.37;2.17;;;14.10;99.90;;;;;;5070978;28;20486;-69
2022/07/07 00:04:08;;;;;;;3.77;2.07;;;14.10;99.90;;;;;;5070436;28;20483;-70
2022/07/07 00:06:35;;;;;;;3.20;2.13;;;14.10;99.90;;;;;;5071340;28;20463;-70
2022/07/07 00:09:02;;;;;;;3.37;2.50;;;14.00;99.90;;;;;;5070626;28;20462;-70
2022/07/07 00:11:29;;;;;;;2.50;2.30;;;14.00;99.90;;;;;;5070811;28;20463;-70
2022/07/07 00:13:57;;;;;;;4.07;2.50;;;14.10;99.90;;;;;;5070626;28;20472;-70
2022/07/07 00:16:24;;;;;;;5.30;2.40;;;14.00;99.90;;;;;;5070663;28;20469;-69
2022/07/07 00:18:51;;;;;;;4.20;2.60;;;14.00;99.90;;;;;;5070557;28;20459;-69
2022/07/07 00:21:18;;;;;;;3.47;2.20;;;14.10;99.90;;;;;;5069949;28;20465;-70
2022/07/07 00:23:44;;;;;;;3.50;2.50;;;14.10;99.90;;;;;;5070556;28;20482;-70
2022/07/07 00:26:11;;;;;;;5.90;2.67;;;14.00;99.90;;;;;;5070437;28;20466;-68
2022/07/07 00:28:38;;;;;;;4.03;2.63;;;14.00;99.90;;;;;;5070827;28;20462;-70
2022/07/07 00:31:06;;;;;;;4.07;2.20;;;14.00;99.90;;;;;;5069732;28;20808;-69
2022/07/07 00:33:33;;;;;;;4.10;2.57;;;14.00;99.90;;;;;;5070721;28;20454;-70
2022/07/07 00:35:59;;;;;;;2.33;2.13;;;14.00;99.90;;;;;;5070429;28;20482;-69
2022/07/07 00:38:26;;;;;;;2.50;2.30;;;14.00;99.90;;;;;;5070351;28;20458;-68
2022/07/07 00:40:54;;;;;;;5.20;2.47;;;14.00;99.90;;;;;;5069867;28;20455;-70
2022/07/07 00:43:21;;;;;;;2.53;2.33;;;14.00;99.90;;;;;;5070430;28;20516;-70
2022/07/07 00:45:48;;;;;;;3.33;2.40;;;14.00;99.90;;;;;;5070366;28;20482;-69
2022/07/07 00:48:18;;;;;;;2.87;2.27;;;14.00;99.90;;;;;;5070080;28;21030;-69
2022/07/07 00:50:46;;;;;;;2.93;2.10;;;14.00;99.90;;;;;;5070004;28;20462;-70
2022/07/07 00:53:14;;;;;;;2.70;2.50;;;14.00;99.90;;;;;;5070100;28;20461;-69
2022/07/07 00:55:41;;;;;;;2.77;2.53;;;14.00;99.90;;;;;;5073808;28;20481;-69
2022/07/07 00:58:08;;;;;;;3.10;2.00;;;13.90;99.90;;;;;;5073879;28;20470;-68
2022/07/07 01:00:35;;;;;;;3.50;2.60;;;13.90;99.90;;;;;;5073655;28;20477;-69
2022/07/07 01:03:02;;;;;;;2.77;2.23;;;13.90;99.90;;;;;;5073925;28;20501;-69
2022/07/07 01:05:32;;;;;;;4.03;2.30;;;13.90;99.90;;;;;;5073985;28;20474;-69
2022/07/07 01:08:02;;;;;;;3.50;2.57;;;13.90;99.90;;;;;;5073780;28;20461;-69
2022/07/07 01:10:29;;;;;;;6.43;2.60;;;13.90;99.90;;;;;;5073412;28;20466;-69
2022/07/07 01:12:56;;;;;;;14.33;3.50;;;14.00;99.90;;;;;;5073825;28;20454;-69
2022/07/07 01:15:23;;;;;;;4.57;2.60;;;14.00;99.90;;;;;;5073622;28;20486;-69
2022/07/07 01:17:49;;;;;;;3.40;2.10;;;14.00;99.90;;;;;;5073677;28;20957;-70
2022/07/07 01:20:16;;;;;;;2.13;1.93;;;14.00;99.90;;;;;;5073047;28;20821;-69
2022/07/07 01:22:48;;;;;;;3.17;1.97;;;14.00;99.90;;;;;;5073581;28;21011;-69
2022/07/07 01:25:15;;;;;;;2.37;2.17;;;14.10;99.90;;;;;;5073456;28;20533;-68
2022/07/07 01:27:42;;;;;;;2.47;2.27;;;14.10;99.90;;;;;;5073649;28;20458;-69
2022/07/07 01:30:09;;;;;;;2.73;2.10;;;14.10;99.90;;;;;;5072888;28;20991;-69
2022/07/07 01:32:36;;;;;;;2.77;2.50;;;14.10;99.90;;;;;;5073389;28;20461;-69
2022/07/07 01:35:03;;;;;;;2.10;1.90;;;14.10;99.90;;;;;;5073235;28;20509;-69
2022/07/07 01:37:30;;;;;;;3.10;2.10;;;14.20;99.90;;;;;;5073350;28;20462;-69
2022/07/07 01:39:58;;;;;;;3.13;2.20;;;14.20;99.90;;;;;;5072721;28;20466;-70
2022/07/07 01:42:25;;;;;;;2.30;2.03;;;14.20;99.90;;;;;;5073246;28;20486;-70
2022/07/07 01:44:52;;;;;;;3.63;2.33;;;14.20;99.90;;;;;;5073256;28;20478;-69
2022/07/07 01:47:20;;;;;;;3.60;2.20;;;14.20;99.90;;;;;;5073162;28;20458;-68
2022/07/07 01:49:47;;;;;;;5.07;2.27;;;14.20;99.90;;;;;;5072606;28;20825;-69
2022/07/07 01:52:14;;;;;;;2.63;2.20;;;14.20;99.90;;;;;;5073066;28;20458;-70
2022/07/07 01:54:41;;;;;;;2.43;2.20;;;14.20;99.90;;;;;;5073055;28;21046;-70
2022/07/07 01:57:10;;;;;;;2.13;1.93;;;14.20;99.90;;;;;;5072914;28;20458;-69
2022/07/07 01:59:38;;;;;;;2.20;2.00;;;14.20;99.90;;;;;;5072295;28;20470;-70
2022/07/07 02:02:05;;;;;;;2.57;2.20;;;14.30;99.90;;;;;;5072783;28;20459;-70
2022/07/07 02:04:32;;;;;;;4.43;2.07;;;14.20;99.90;;;;;;5072675;28;20479;-68
2022/07/07 02:06:59;;;;;;;2.00;1.80;;;14.30;99.90;;;;;;5071834;28;20462;-70
2022/07/07 02:09:25;;;;;;;3.23;2.00;;;14.30;99.90;;;;;;5072160;28;20454;-70
2022/07/07 02:11:52;;;;;;;2.23;1.73;;;14.20;99.90;;;;;;5072864;28;20486;-69
2022/07/07 02:14:21;;;;;;;2.50;2.03;;;14.30;99.90;;;;;;5072558;28;20471;-70
2022/07/07 02:16:48;;;;;;;3.90;2.17;;;14.30;99.90;;;;;;5072323;28;20498;-70
2022/07/07 02:19:15;;;;;;;3.03;2.27;;;14.30;99.90;;;;;;5071861;28;20469;-69
2022/07/07 02:21:42;;;;;;;3.90;1.80;;;14.30;99.90;;;;;;5072370;28;20957;-70
2022/07/07 02:24:09;;;;;;;2.70;2.07;;;14.30;99.90;;;;;;5072028;28;20585;-70
2022/07/07 02:26:35;;;;;;;6.93;2.33;;;14.40;99.90;;;;;;5072317;28;20462;-69
2022/07/07 02:29:02;;;;;;;4.10;2.80;;;14.30;99.90;;;;;;5072077;28;20454;-70
2022/07/07 02:31:30;;;;;;;6.03;2.43;;;14.30;99.90;;;;;;5071776;28;20463;-70
2022/07/07 02:33:57;;;;;;;3.27;1.73;;;14.30;99.90;;;;;;5072029;28;20454;-70
2022/07/07 02:36:24;;;;;;;3.13;1.90;;;14.30;99.90;;;;;;5072332;28;20565;-69
2022/07/07 02:38:51;;;;;;;2.80;1.83;;;14.30;99.90;;;;;;5071942;28;20462;-70
2022/07/07 02:41:19;;;;;;;3.70;2.10;;;14.30;99.90;;;;;;5071538;28;20494;-70
2022/07/07 02:43:46;;;;;;;3.00;2.70;;;14.30;99.90;;;;;;5071709;28;20490;-70
2022/07/07 02:46:12;;;;;;;2.70;1.90;;;14.30;99.90;;;;;;5071960;28;20466;-69
2022/07/07 02:48:40;;;;;;;2.43;1.80;;;14.30;99.90;;;;;;5071818;28;20462;-70
2022/07/07 02:51:08;;;;;;;2.83;2.10;;;14.30;99.90;;;;;;5070941;28;20462;-69
2022/07/07 02:53:36;;;;;;;2.90;2.17;;;14.30;99.90;;;;;;5071840;28;20465;-69
2022/07/07 02:56:03;;;;;;;2.70;1.97;;;14.30;99.90;;;;;;5071601;28;20478;-70
2022/07/07 02:58:29;;;;;;;2.60;2.20;;;14.30;99.90;;;;;;5071547;28;20462;-70
2022/07/07 03:00:57;;;;;;;4.10;2.13;;;14.30;99.90;;;;;;5070995;28;20961;-70
2022/07/07 03:03:23;;;;;;;2.80;2.27;;;14.30;99.90;;;;;;5071771;28;20887;-68
2022/07/07 03:05:51;;;;;;;2.60;2.40;;;14.30;99.90;;;;;;5071231;28;20493;-70
2022/07/07 03:08:18;;;;;;;3.90;2.10;;;14.30;99.90;;;;;;5071331;28;20459;-70
2022/07/07 03:10:45;;;;;;;2.47;2.10;;;14.30;99.90;;;;;;5070876;28;20458;-70
2022/07/07 03:13:11;;;;;;;3.30;1.70;;;14.30;99.90;;;;;;5071433;28;20466;-70
2022/07/07 03:15:38;;;;;;;3.57;2.07;;;14.30;99.90;;;;;;5072065;28;20993;-69
2022/07/07 03:18:05;;;;;;;2.57;1.83;;;14.30;99.90;;;;;;5071320;28;20455;-69
2022/07/07 03:20:32;;;;;;;3.43;2.13;;;14.20;99.90;;;;;;5071115;28;20458;-71
2022/07/07 03:23:00;;;;;;;3.60;2.70;;;14.20;99.90;;;;;;5071099;28;20488;-70
2022/07/07 03:25:27;;;;;;;3.67;2.27;;;14.20;99.90;;;;;;5071200;28;20483;-68
2022/07/07 03:27:53;;;;;;;2.57;2.20;;;14.20;99.90;;;;;;5070746;28;20466;-69
2022/07/07 03:30:20;;;;;;;3.50;2.00;;;14.10;99.90;;;;;;5065066;28;20456;-70
2022/07/07 03:32:47;;;;;;;1.90;1.80;;;14.20;99.90;;;;;;5069698;28;20453;-70
2022/07/07 03:35:14;;;;;;;2.93;1.80;;;14.20;99.90;;;;;;5061403;28;20487;-68
2022/07/07 03:37:40;;;;;;;2.67;2.17;;;14.20;99.90;;;;;;5059233;28;20455;-70
2022/07/07 03:40:10;;;;;;;2.57;2.10;;;14.20;99.90;;;;;;5060584;28;20463;-69
2022/07/07 03:42:38;;;;;;;3.23;2.00;;;14.20;99.90;;;;;;5059994;28;20464;-69
2022/07/07 03:45:05;;;;;;;4.80;2.00;;;14.20;99.90;;;;;;5058110;28;20478;-69
2022/07/07 03:47:32;;;;;;;3.23;2.40;;;14.20;99.90;;;;;;5060389;28;20461;-68
2022/07/07 03:49:59;;;;;;;7.60;2.43;;;14.30;99.90;;;;;;5059968;28;20464;-69
2022/07/07 03:52:26;;;;;;;4.73;2.17;;;14.30;99.90;;;;;;5066924;28;20459;-69
2022/07/07 03:54:52;;;;;;;2.13;1.80;;;14.40;99.90;;;;;;5068785;28;20753;-70
2022/07/07 03:57:20;;;;;;;2.57;2.37;;;14.40;99.90;;;;;;5050371;28;20455;-69
2022/07/07 03:59:47;;;;;;;2.73;1.90;;;14.40;99.90;;;;;;5049233;28;20480;-69
2022/07/07 04:02:15;;;;;;;2.30;2.10;;;14.50;99.90;;;;;;5111714;22;20485;-92
2022/07/07 04:04:42;;;;;;;2.30;2.00;;;14.50;99.90;;;;;;5122177;28;20469;-93
2022/07/07 04:07:09;;;;;;;3.67;2.07;;;14.50;99.90;;;;;;5118049;28;20453;-92
2022/07/07 04:15:45;;;;;;;2.77;1.80;;;14.40;99.90;;;;;;5117237;28;20454;-91
2022/07/07 04:18:12;;;;;;;3.87;2.13;;;14.40;99.90;;;;;;5102647;28;20468;-92
2022/07/07 04:20:41;;;;;;;2.70;2.20;;;14.40;99.90;;;;;;5096449;28;20844;-90
2022/07/07 04:23:08;;;;;;;6.10;2.00;;;14.40;99.90;;;;;;5096996;28;20474;-92
2022/07/07 04:25:35;;;;;;;3.43;1.90;;;14.50;99.90;;;;;;5097743;28;20461;-92
2022/07/07 04:28:16;;;;;;;2.53;1.80;;;14.40;99.90;;;;;;5091863;28;20461;-93
2022/07/07 04:30:43;;;;;;;2.40;2.20;;;14.40;99.90;;;;;;5094953;28;20481;-91
2022/07/07 04:33:10;;;;;;;2.83;2.30;;;14.40;99.90;;;;;;5094362;28;20461;-92
2022/07/07 04:35:39;;;;;;;4.10;1.70;;;14.40;99.90;;;;;;5094756;28;20458;-93
2022/07/07 04:40:57;;;;;;;2.90;1.83;;;14.50;99.90;;;;;;5090802;28;21049;-91
2022/07/07 04:43:26;;;;;;;2.50;2.07;;;14.50;99.90;;;;;;5093319;28;20577;-92
2022/07/07 04:45:53;;;;;;;2.40;2.10;;;14.40;99.90;;;;;;5094971;28;20497;-92
2022/07/07 04:48:36;;;;;;;5.13;2.27;;;14.50;99.90;;;;;;5095997;28;20457;-91
2022/07/07 04:51:03;;;;;;;3.50;2.20;;;14.50;99.90;;;;;;5095317;28;21028;-92
2022/07/07 04:56:43;;;;;;;1.83;1.73;;;14.50;99.90;;;;;;5095930;28;20962;-92
2022/07/07 04:59:13;;;;;;;3.17;2.30;;;14.60;99.90;;;;;;5095267;28;20544;-93
2022/07/07 05:01:46;;;;;;;3.83;2.30;;;14.50;99.90;;;;;;5094407;28;20492;-94
2022/07/07 05:04:29;;;;;;;2.30;2.10;;;14.50;99.90;;;;;;5096099;28;20485;-92
2022/07/07 05:07:14;;;;;;;4.17;2.50;;;14.40;99.90;;;;;;5096196;28;20476;-93
2022/07/07 05:12:26;;;;;;;2.73;2.33;;;14.50;99.90;;;;;;5094084;28;20461;-94
2022/07/07 05:15:04;;;;;;;3.83;2.63;;;14.50;99.90;;;;;;5096887;28;20453;-93
2022/07/07 05:17:34;;;;;;;4.33;2.20;;;14.60;99.90;;;;;;5098811;28;20888;-92
2022/07/07 05:20:03;;;;;;;2.53;2.33;;;14.60;99.90;;;;;;5106765;28;20469;-93
2022/07/07 05:22:44;;;;;;;2.20;2.00;;;14.70;99.90;;;;;;5102258;28;20512;-94
2022/07/07 05:25:33;;;;;;;9.53;2.60;;;14.70;99.90;;;;;;5096723;28;20478;-93
2022/07/07 05:28:01;;;;;;;2.77;2.10;;;14.80;99.90;;;;;;5097140;28;20461;-93
2022/07/07 05:30:29;;;;;;;5.00;2.20;;;14.80;99.90;;;;;;5097675;28;20508;-93
2022/07/07 05:32:57;;;;;;;3.57;2.43;;;14.80;99.90;;;;;;5096097;28;20479;-93
2022/07/07 05:35:38;;;;;;;5.20;2.10;;;14.80;99.90;;;;;;5095630;28;20891;-93
2022/07/07 05:38:08;;;;;;;2.43;2.17;;;14.80;99.90;;;;;;5095329;28;20454;-92
2022/07/07 05:40:35;;;;;;;2.57;2.07;;;14.80;99.90;;;;;;5096111;28;20485;-93
2022/07/07 05:43:03;;;;;;;2.27;2.10;;;14.80;99.90;;;;;;5100437;28;20564;-93
2022/07/07 05:48:26;;;;;;;2.20;2.00;;;14.80;99.90;;;;;;5088608;27;20542;-70
2022/07/07 05:50:52;;;;;;;3.73;2.73;;;14.80;99.90;;;;;;5088206;28;20501;-69
2022/07/07 05:53:19;;;;;;;2.20;2.00;;;14.90;99.90;;;;;;5088824;28;20465;-69
2022/07/07 05:55:46;;;;;;;3.37;2.40;;;15.00;99.90;;;;;;5071677;28;20478;-70
2022/07/07 05:58:13;;;;;;;3.53;2.20;;;15.10;99.90;;;;;;5068432;28;20461;-69
2022/07/07 06:00:40;;;;;;;3.30;1.97;;;15.30;99.90;;;;;;5067733;28;20462;-69
2022/07/07 06:03:06;;;;;;;2.20;2.00;;;15.30;99.90;;;;;;5068494;28;20837;-69
2022/07/07 06:05:34;;;;;;;2.50;2.10;;;15.40;99.90;;;;;;5066020;28;20489;-70
2022/07/07 06:08:01;;;;;;;2.47;2.27;;;15.50;99.90;;;;;;5070136;28;20487;-70
2022/07/07 06:10:28;;;;;;;1.97;1.87;;;15.50;99.90;;;;;;5070288;28;20461;-69
2022/07/07 06:12:55;;;;;;;2.07;1.80;;;15.70;99.90;;;;;;5070620;28;20473;-70
2022/07/07 06:15:22;;;;;;;3.47;2.20;;;15.80;99.90;;;;;;5070720;28;20852;-70
2022/07/07 06:17:48;;;;;;;3.33;2.00;;;15.80;99.90;;;;;;5070873;28;20826;-71
2022/07/07 06:20:15;;;;;;;2.67;2.07;;;16.00;99.90;;;;;;5069998;28;20462;-71
2022/07/07 06:22:43;;;;;;;2.97;1.87;;;16.00;99.90;;;;;;5070926;28;20695;-71
2022/07/07 06:25:10;;;;;;;5.00;1.90;;;16.10;99.90;;;;;;5070559;28;20479;-71
2022/07/07 06:27:37;;;;;;;2.00;1.90;;;16.10;99.90;;;;;;5070552;28;20489;-71
2022/07/07 06:30:05;;;;;;;2.50;2.30;;;16.20;99.90;;;;;;5070197;28;20462;-71
2022/07/07 06:32:32;;;;;;;3.90;2.10;;;16.20;99.90;;;;;;5070598;28;20877;-70
2022/07/07 06:34:59;;;;;;;2.50;2.10;;;16.30;99.90;;;;;;5069575;28;20505;-70
2022/07/07 06:37:25;;;;;;;2.80;2.23;;;16.40;99.90;;;;;;5069709;28;20459;-69
2022/07/07 06:39:54;;;;;;;2.80;2.10;;;16.50;99.90;;;;;;5068409;28;20459;-70
2022/07/07 06:42:20;;;;;;;1.97;1.77;;;16.60;99.90;;;;;;5068848;28;20458;-70
2022/07/07 06:44:47;;;;;;;3.70;2.07;;;16.80;99.90;;;;;;5068106;28;20851;-70
2022/07/07 06:47:14;;;;;;;2.33;2.13;;;16.90;99.90;;;;;;5068526;28;20490;-71
2022/07/07 06:49:40;;;;;;;2.73;1.97;;;17.00;99.90;;;;;;5067464;28;20827;-70
2022/07/07 06:52:08;;;;;;;6.37;2.20;;;17.00;99.90;;;;;;5068553;28;20481;-71
2022/07/07 06:54:35;;;;;;;6.80;2.40;;;17.10;99.90;;;;;;5067861;28;20844;-70
2022/07/07 06:57:03;;;;;;;6.10;2.50;;;17.20;99.90;;;;;;5068414;28;20462;-71
2022/07/07 06:59:30;;;;;;;2.90;2.20;;;17.20;99.90;;;;;;5055754;28;20455;-71
2022/07/07 07:01:56;;;;;;;2.53;2.20;;;17.20;99.90;;;;;;5054273;28;20474;-71
2022/07/07 07:04:23;;;;;;;4.33;2.50;;;17.30;99.90;;;;;;5053910;28;20479;-69
2022/07/07 07:06:50;;;;;;;5.70;2.43;;;17.40;99.90;;;;;;5054872;28;20479;-70
2022/07/07 07:09:17;;;;;;;2.80;2.27;;;17.50;99.90;;;;;;5053609;28;20463;-70
2022/07/07 07:11:43;;;;;;;3.23;1.90;;;17.60;99.90;;;;;;5054212;28;20470;-71
2022/07/07 07:14:13;;;;;;;4.13;2.20;;;17.60;99.90;;;;;;5054770;28;20479;-70
2022/07/07 07:16:39;;;;;;;4.00;2.20;;;17.80;99.90;;;;;;5054427;28;20525;-71
2022/07/07 07:19:06;;;;;;;2.67;2.10;;;17.90;99.90;;;;;;5054416;28;20459;-69
2022/07/07 07:21:33;;;;;;;2.77;2.20;;;18.00;99.90;;;;;;5054087;28;20469;-70
2022/07/07 07:24:00;;;;;;;2.80;2.40;;;18.10;99.90;;;;;;5049293;28;20883;-71
2022/07/07 07:26:27;;;;;;;3.43;2.33;;;18.20;99.90;;;;;;5052620;28;20854;-70
2022/07/07 07:28:53;;;;;;;5.83;2.60;;;18.20;99.90;;;;;;5052889;28;20463;-71
2022/07/07 07:31:21;;;;;;;7.07;2.03;;;18.20;99.90;;;;;;5052206;28;20459;-71
2022/07/07 07:33:48;;;;;;;4.53;1.90;;;18.30;99.90;;;;;;5052564;28;20456;-71
2022/07/07 07:36:15;;;;;;;3.17;2.30;;;18.30;99.90;;;;;;5052339;28;20470;-69
2022/07/07 07:38:43;;;;;;;2.70;2.13;;;18.50;99.90;;;;;;5052289;28;20458;-70
2022/07/07 07:41:11;;;;;;;4.30;1.90;;;18.60;99.90;;;;;;5052515;28;20505;-73
2022/07/07 07:43:38;;;;;;;3.33;2.27;;;18.60;99.90;;;;;;5052494;28;20489;-71
2022/07/07 07:46:06;;;;;;;5.40;3.23;;;18.70;99.90;;;;;;5052513;28;20836;-71
2022/07/07 07:48:34;;;;;;;8.23;2.60;;;18.80;99.90;;;;;;5052670;28;21025;-71
2022/07/07 07:51:01;;;;;;;6.47;2.80;;;18.80;99.90;;;;;;5052220;28;20466;-70
2022/07/07 07:53:27;;;;;;;7.83;3.00;;;18.80;99.90;;;;;;5051440;28;20462;-71
2022/07/07 07:55:54;;;;;;;5.80;2.70;;;18.80;99.90;;;;;;5052983;28;20494;-71
2022/07/07 07:58:21;;;;;;;4.63;3.00;;;19.00;99.90;;;;;;5053043;28;20477;-71
2022/07/07 08:00:48;;;;;;;6.13;2.37;;;19.10;99.90;;;;;;5052321;28;20467;-71
2022/07/07 08:03:15;;;;;;;2.57;2.10;;;19.10;99.90;;;;;;5053756;28;20857;-71
2022/07/07 08:05:43;;;;;;;3.63;2.17;;;19.10;99.90;;;;;;5052662;28;20502;-70
2022/07/07 08:08:10;;;;;;;3.03;2.80;;;19.10;99.90;;;;;;5053013;28;20510;-71
2022/07/07 08:10:37;;;;;;;3.57;2.90;;;19.00;99.90;;;;;;5049484;28;20464;-69
2022/07/07 08:13:04;;;;;;;2.67;2.43;;;18.90;99.90;;;;;;5050656;28;20962;-71
2022/07/07 08:15:31;;;;;;;5.97;2.47;;;18.80;99.90;;;;;;5050511;28;20998;-68
2022/07/07 08:17:58;;;;;;;3.80;2.43;;;18.70;99.90;;;;;;5050987;28;20459;-70
2022/07/07 08:20:26;;;;;;;3.07;2.77;;;18.60;99.90;;;;;;5050460;28;20462;-71
2022/07/07 08:22:54;;;;;;;2.93;2.63;;;18.50;99.90;;;;;;5039301;28;20827;-71
2022/07/07 08:25:20;;;;;;;2.30;1.90;;;18.40;99.90;;;;;;5030051;28;20480;-69
2022/07/07 08:27:47;;;;;;;5.70;2.37;;;18.40;99.90;;;;;;5029345;28;20998;-70
2022/07/07 08:30:14;;;;;;;3.83;2.47;;;18.40;99.90;;;;;;5036689;28;20884;-69
2022/07/07 08:32:43;;;;;;;3.00;2.03;;;18.40;99.90;;;;;;5050006;28;20827;-70
2022/07/07 08:35:10;;;;;;;4.20;2.53;;;18.40;99.90;;;;;;5050658;28;21072;-70
2022/07/07 08:37:37;;;;;;;3.73;2.27;;;18.40;99.90;;;;;;5049833;28;20840;-70
2022/07/07 08:40:06;;;;;;;4.03;2.20;;;18.40;99.90;;;;;;5050048;28;20463;-70
2022/07/07 08:42:33;;;;;;;3.40;2.60;;;18.40;99.90;;;;;;5050364;28;20462;-71
2022/07/07 08:44:59;;;;;;;5.40;2.50;;;18.50;99.90;;;;;;5050233;28;20823;-70
2022/07/07 08:47:26;;;;;;;4.60;2.67;;;18.50;99.90;;;;;;5050695;28;21002;-70
2022/07/07 08:49:53;;;;;;;8.40;2.93;;;18.60;99.90;;;;;;5049298;28;20455;-69
2022/07/07 08:52:21;;;;;;;3.60;2.67;;;18.70;99.90;;;;;;5050589;28;20466;-70
2022/07/07 08:54:49;;;;;;;5.90;2.47;;;18.80;99.90;;;;;;5050835;28;20907;-70
2022/07/07 08:57:18;;;;;;;6.87;3.80;;;18.90;99.90;;;;;;5051206;28;20451;-70
2022/07/07 08:59:45;;;;;;;6.07;3.57;;;19.00;99.90;;;;;;5050228;28;20840;-71
2022/07/07 09:02:12;;;;;;;3.87;2.70;;;19.00;99.90;;;;;;5051312;28;20843;-70
2022/07/07 09:04:38;;;;;;;3.80;3.20;;;19.10;99.90;;;;;;5049674;28;20863;-69
2022/07/07 09:07:07;;;;;;;3.23;2.93;;;19.30;99.90;;;;;;5049405;28;20467;-70
2022/07/07 09:09:42;;;;;;;4.93;2.90;;;19.50;99.90;;;;;;5049126;28;21200;-69
2022/07/07 09:12:11;;;;;;;4.37;3.70;;;19.70;99.90;;;;;;5049647;28;20462;-70
2022/07/07 09:14:41;;;;;;;3.13;2.53;;;19.80;99.90;;;;;;5049434;28;21051;-70
2022/07/07 09:17:16;;;;;;;4.17;2.67;;;19.90;99.90;;;;;;5047848;28;20463;-70
2022/07/07 09:19:44;;;;;;;4.20;3.00;;;20.00;99.90;;;;;;5048607;28;20482;-69
2022/07/07 09:22:12;;;;;;;6.77;2.80;;;20.10;99.90;;;;;;5050144;28;20460;-69
2022/07/07 09:24:54;;;;;;;4.90;2.93;;;20.20;99.90;;;;;;5051264;28;20486;-69
2022/07/07 09:27:21;;;;;;;2.80;2.60;;;20.40;99.90;;;;;;5049793;28;20471;-70
2022/07/07 09:29:49;;;;;;;4.10;2.93;;;20.30;99.90;;;;;;5050635;28;20491;-68
2022/07/07 09:32:16;;;;;;;4.83;3.57;;;20.20;99.90;;;;;;5051057;28;20471;-70
2022/07/07 09:34:43;;;;;;;7.47;3.30;;;20.00;99.90;;;;;;5050676;28;20479;-70
2022/07/07 09:39:55;;;;;;;2.67;2.30;;;19.80;99.90;;;;;;5050949;28;20438;-71
2022/07/07 09:42:24;;;;;;;4.13;2.00;;;19.70;99.90;;;;;;5053879;28;20470;-70
2022/07/07 09:44:54;;;;;;;4.10;1.80;;;19.60;99.90;;;;;;5052909;28;20530;-70
2022/07/07 09:47:21;;;;;;;4.77;2.30;;;19.40;99.90;;;;;;5052430;28;20989;-70
2022/07/07 09:50:03;;;;;;;9.63;2.40;;;19.30;99.90;;;;;;5050681;28;20455;-70
2022/07/07 09:52:32;;;;;;;3.00;1.90;;;19.10;99.90;;;;;;5052337;28;20459;-70
2022/07/07 09:55:00;;;;;;;2.33;1.70;;;19.10;99.90;;;;;;5051774;28;20483;-71
2022/07/07 09:57:27;;;;;;;2.80;2.17;;;19.00;99.90;;;;;;5051926;28;20464;-70
2022/07/07 09:59:56;;;;;;;2.13;1.93;;;19.00;99.90;;;;;;5050978;28;20463;-70
2022/07/07 10:02:24;;;;;;;3.23;2.00;;;18.90;99.90;;;;;;5053448;28;20946;-69
2022/07/07 10:04:52;;;;;;;2.17;1.97;;;18.80;99.90;;;;;;5053006;28;20506;-69
2022/07/07 10:07:21;;;;;;;1.97;1.87;;;18.80;99.90;;;;;;5050746;28;20459;-70
2022/07/07 10:09:52;;;;;;;3.23;2.93;;;18.80;99.90;;;;;;5051165;28;20459;-70
2022/07/07 10:12:21;;;;;;;2.33;1.97;;;18.80;99.90;;;;;;5050195;28;20975;-70
2022/07/07 10:14:50;;;;;;;2.70;1.90;;;18.90;99.90;;;;;;5050032;28;20536;-70
2022/07/07 10:17:18;;;;;;;2.57;2.10;;;18.90;99.90;;;;;;5050186;28;20463;-71
2022/07/07 10:19:45;;;;;;;2.60;2.40;;;18.90;99.90;;;;;;5048722;28;20456;-70
2022/07/07 10:22:14;;;;;;;3.13;2.57;;;18.90;99.90;;;;;;5049442;28;20455;-70
2022/07/07 10:24:42;;;;;;;6.90;3.07;;;19.00;99.90;;;;;;5049360;28;20828;-69
2022/07/07 10:27:13;;;;;;;2.57;2.37;;;19.10;99.90;;;;;;5048915;28;20828;-70
2022/07/07 10:29:42;;;;;;;2.90;2.37;;;19.30;99.90;;;;;;5048406;28;20491;-70
2022/07/07 10:32:10;;;;;;;3.13;2.17;;;19.50;99.90;;;;;;5049614;28;20459;-70
2022/07/07 10:34:40;;;;;;;3.00;2.30;;;19.80;99.90;;;;;;5071232;28;20476;-70
2022/07/07 10:37:08;;;;;;;3.30;2.47;;;20.00;99.90;;;;;;5073085;28;20470;-70
2022/07/07 10:39:38;;;;;;;2.03;1.93;;;20.20;99.90;;;;;;5071537;28;20459;-69
2022/07/07 10:42:21;;;;;;;3.13;2.50;;;20.20;99.90;;;;;;5072669;28;20805;-70
2022/07/07 10:44:50;;;;;;;2.80;2.57;;;20.10;99.90;;;;;;5072655;28;20994;-70
2022/07/07 10:47:33;;;;;;;2.40;2.20;;;19.90;99.90;;;;;;5072892;28;20466;-70
2022/07/07 10:50:02;;;;;;;3.77;2.60;;;19.80;99.90;;;;;;5071841;28;20469;-70
2022/07/07 10:52:39;;;;;;;2.33;2.13;;;19.70;99.90;;;;;;5072564;28;21034;-70
2022/07/07 10:55:07;;;;;;;3.60;2.70;;;19.80;99.90;;;;;;5072432;28;20482;-70
2022/07/07 10:57:41;;;;;;;5.40;2.70;;;19.70;99.90;;;;;;5072927;28;20580;-68
2022/07/07 11:00:18;;;;;;;3.00;2.37;;;19.70;99.90;;;;;;5072176;28;20458;-70
2022/07/07 11:02:48;;;;;;;4.90;2.37;;;19.60;99.90;;;;;;5071863;28;20458;-69
2022/07/07 11:05:37;;;;;;;2.50;2.27;;;19.50;99.90;;;;;;5072613;28;20608;-70
2022/07/07 11:08:09;;;;;;;4.60;2.63;;;19.40;99.90;;;;;;5067554;28;20482;-69
2022/07/07 11:10:51;;;;;;;2.90;2.60;;;19.30;99.90;;;;;;5072178;28;20458;-71
2022/07/07 11:13:21;;;;;;;3.50;2.40;;;19.30;99.90;;;;;;5073053;28;20527;-70
2022/07/07 11:15:49;;;;;;;2.17;2.07;;;19.30;99.90;;;;;;5072244;28;20563;-69
2022/07/07 11:18:18;;;;;;;3.30;2.57;;;19.20;99.90;;;;;;5072015;28;20477;-69
2022/07/07 11:21:07;;;;;;;5.53;2.70;;;19.20;99.90;;;;;;5072274;28;20458;-70
2022/07/07 11:23:47;;;;;;;9.73;3.27;;;19.10;99.90;;;;;;5068669;28;20494;-70
2022/07/07 11:26:16;;;;;;;6.73;2.87;;;19.10;99.90;;;;;;5077100;28;20537;-70
2022/07/07 11:28:43;;;;;;;3.57;2.63;;;19.10;99.90;;;;;;5075340;28;20479;-70
2022/07/07 11:31:10;;;;;;;3.60;2.17;;;19.10;99.90;;;;;;5075749;28;20516;-71
2022/07/07 11:33:38;;;;;;;2.40;2.20;;;19.20;99.90;;;;;;5075340;28;20462;-70
2022/07/07 11:36:17;;;;;;;2.40;2.10;;;19.30;99.90;;;;;;5076000;28;20482;-70
2022/07/07 11:38:46;;;;;;;3.70;2.60;;;19.30;99.90;;;;;;5075350;28;20541;-69
2022/07/07 11:41:13;;;;;;;3.03;2.10;;;19.50;99.90;;;;;;5074721;28;20469;-70
2022/07/07 11:43:39;;;;;;;5.17;1.80;;;19.50;99.90;;;;;;5075693;28;20486;-70
2022/07/07 11:46:06;;;;;;;2.80;2.17;;;19.50;99.90;;;;;;5075435;28;20490;-70
2022/07/07 11:48:38;;;;;;;3.20;1.70;;;19.60;99.90;;;;;;5076221;28;21012;-70
2022/07/07 11:51:06;;;;;;;3.53;2.00;;;19.50;99.90;;;;;;5074853;28;20824;-70
2022/07/07 11:53:35;;;;;;;3.00;2.30;;;19.40;99.90;;;;;;5075642;28;20459;-70
2022/07/07 11:56:03;;;;;;;2.57;2.27;;;19.30;99.90;;;;;;5074942;28;20482;-70
2022/07/07 11:58:30;;;;;;;2.90;2.70;;;19.30;99.90;;;;;;5075079;28;20459;-70
2022/07/07 12:00:58;;;;;;;4.53;2.13;;;19.20;99.90;;;;;;5074287;28;20956;-71
2022/07/07 12:03:33;;;;;;;4.67;2.10;;;19.20;99.90;;;;;;5074754;28;20461;-69
2022/07/07 12:06:01;;;;;;;2.93;2.40;;;19.20;99.90;;;;;;5074774;28;20989;-71
2022/07/07 12:08:37;;;;;;;3.63;1.90;;;19.30;99.90;;;;;;5074485;28;20504;-70
2022/07/07 12:11:05;;;;;;;2.40;2.20;;;19.40;99.90;;;;;;5073076;28;20462;-70
2022/07/07 12:13:32;;;;;;;5.80;2.70;;;19.50;99.90;;;;;;5072874;28;20485;-70
2022/07/07 12:16:03;;;;;;;3.93;2.40;;;19.50;99.90;;;;;;5072434;28;20489;-70
2022/07/07 12:18:35;;;;;;;3.40;2.60;;;19.40;99.90;;;;;;5072157;28;20490;-70
2022/07/07 12:21:04;;;;;;;8.60;2.60;;;19.30;99.90;;;;;;5071810;28;20466;-71
2022/07/07 12:23:34;;;;;;;3.80;2.60;;;19.20;99.90;;;;;;5073111;28;20459;-70
2022/07/07 12:26:11;;;;;;;4.37;2.10;;;19.10;99.90;;;;;;5071160;28;20485;-70
2022/07/07 12:28:39;;;;;;;3.43;2.50;;;19.10;99.90;;;;;;5071302;28;20474;-69
2022/07/07 12:31:07;;;;;;;4.63;2.50;;;19.00;99.90;;;;;;5072250;28;20469;-71
2022/07/07 12:33:36;;;;;;;5.33;2.43;;;19.00;99.90;;;;;;5072817;28;20454;-70
2022/07/07 12:36:13;;;;;;;3.40;2.27;;;19.00;99.90;;;;;;5071123;28;20506;-69
2022/07/07 12:38:43;;;;;;;2.97;2.20;;;19.00;99.90;;;;;;5071812;28;20549;-69
2022/07/07 12:41:21;;;;;;;3.30;2.60;;;19.10;99.90;;;;;;5070664;28;20471;-71
2022/07/07 12:43:48;;;;;;;3.67;2.60;;;19.10;99.90;;;;;;5071535;28;20466;-70
2022/07/07 12:46:14;;;;;;;6.23;2.50;;;19.10;99.90;;;;;;5070586;28;20462;-71
2022/07/07 12:48:52;;;;;;;5.33;2.80;;;19.10;99.90;;;;;;5071029;28;20573;-70
2022/07/07 12:51:25;;;;;;;4.50;2.47;;;19.10;99.90;;;;;;5070382;28;20465;-70
2022/07/07 12:53:51;;;;;;;5.83;2.90;;;19.10;99.90;;;;;;5070261;28;20482;-70
2022/07/07 12:56:20;;;;;;;3.50;2.90;;;19.10;99.90;;;;;;5070219;28;20455;-70
2022/07/07 12:58:49;;;;;;;4.20;2.97;;;19.20;99.90;;;;;;5070878;28;20550;-71
2022/07/07 13:01:19;;;;;;;3.30;2.20;;;19.20;99.90;;;;;;5070062;28;20858;-70
2022/07/07 13:03:52;;;;;;;3.17;2.10;;;19.20;99.90;;;;;;5070701;28;20465;-71
2022/07/07 13:06:22;;;;;;;3.20;2.20;;;19.10;99.90;;;;;;5070550;28;21000;-69
2022/07/07 13:08:50;;;;;;;8.50;3.50;;;19.10;99.90;;;;;;5075074;28;20479;-71
2022/07/07 13:11:19;;;;;;;5.40;2.90;;;19.10;99.90;;;;;;5074500;28;20969;-70
2022/07/07 13:13:46;;;;;;;3.83;2.60;;;19.10;99.90;;;;;;5074283;28;20459;-70
2022/07/07 13:16:13;;;;;;;3.73;2.40;;;19.20;99.90;;;;;;5073665;28;20489;-71